Terminal Aerodrome Forecast
Issued by NWS

Home | Current Version | Previous Version | Text Only | Print | Product List | Glossary On
Versions: 1 2 3 4 5 6 7 8 9 10 11 12 13 14 15 16 17 18 19 20 21
000
FTUS41 KPBZ 291700
TAFHLG
TAF
KHLG 291731Z 2918/3018 21010KT P6SM FEW150
     FM300300 22010KT 6SM -RA OVC040
     FM300600 21010KT 5SM -RA OVC025
     FM301200 26011KT P6SM BKN025 OVC035
     FM301500 26012G20KT P6SM BKN035=

USA.gov is the U.S. government's official web portal to all federal, state and local government web resources and services.